Wetterdaten: Woche 11.11.13 - 17.11.13 (KW46)
Datum Zeit Temp. A. Feuchte A. Luftdruck Regen Wind Richtung Taupunkt Windchill Windben
11.11.2013 00:00 6,7 C 85 % 1011,4 hPa 1,0 l/m 11,9 km/h N 4,4 C 2,8 C 25,7 km/h
11.11.2013 01:00 6,2 C 86 % 1012,8 hPa 0,8 l/m 14,1 km/h N 4,1 C 1,1 C 31,0 km/h
11.11.2013 02:00 5,4 C 85 % 1014,3 hPa 2,1 l/m 16,4 km/h N 3,1 C -1,1 C 35,8 km/h
11.11.2013 03:00 4,4 C 85 % 1016,0 hPa 1,6 l/m 15,5 km/h N 2,1 C -1,9 C 34,6 km/h
11.11.2013 04:00 3,5 C 85 % 1017,7 hPa 1,8 l/m 14,1 km/h N 1,2 C -2,3 C 30,6 km/h
11.11.2013 05:00 3,2 C 85 % 1019,2 hPa 1,8 l/m 13,8 km/h N 0,9 C -2,4 C 31,8 km/h
11.11.2013 06:00 3,2 C 85 % 1020,4 hPa 0,8 l/m 13,2 km/h N 1,0 C -2,0 C 29,8 km/h
11.11.2013 07:00 3,6 C 85 % 1021,7 hPa 0,3 l/m 14,2 km/h N 1,3 C -2,1 C 30,6 km/h
11.11.2013 08:00 4,3 C 85 % 1022,7 hPa 0,0 l/m 14,0 km/h N 2,0 C -1,2 C 31,0 km/h
11.11.2013 09:00 5,1 C 84 % 1023,3 hPa 0,0 l/m 15,2 km/h N 2,6 C -0,9 C 31,8 km/h
11.11.2013 10:00 5,9 C 82 % 1024,1 hPa 0,0 l/m 14,0 km/h N 3,0 C 0,7 C 27,8 km/h
11.11.2013 11:00 6,6 C 79 % 1024,7 hPa 0,0 l/m 11,7 km/h N 3,2 C 2,9 C 31,4 km/h
11.11.2013 12:00 7,0 C 77 % 1025,1 hPa 0,0 l/m 11,1 km/h N 3,1 C 3,6 C 28,5 km/h
11.11.2013 13:00 7,2 C 75 % 1025,6 hPa 0,0 l/m 10,1 km/h N 3,0 C 4,5 C 25,8 km/h
11.11.2013 14:00 7,3 C 73 % 1026,4 hPa 0,0 l/m 9,2 km/h N 2,8 C 5,2 C 23,7 km/h
11.11.2013 15:00 7,4 C 72 % 1027,1 hPa 0,0 l/m 9,3 km/h N 2,6 C 5,2 C 27,8 km/h
11.11.2013 16:00 7,4 C 70 % 1027,8 hPa 0,0 l/m 10,0 km/h N 2,2 C 4,7 C 27,7 km/h
11.11.2013 17:00 7,2 C 71 % 1028,9 hPa 0,0 l/m 9,6 km/h N 2,2 C 4,8 C 24,1 km/h
11.11.2013 18:00 7,0 C 73 % 1029,7 hPa 0,0 l/m 10,9 km/h N 2,6 C 3,8 C 27,0 km/h
11.11.2013 19:00 6,8 C 72 % 1030,1 hPa 0,0 l/m 9,8 km/h N 2,1 C 4,3 C 23,7 km/h
11.11.2013 20:00 6,5 C 74 % 1030,1 hPa 0,0 l/m 9,2 km/h N 2,1 C 4,4 C 22,5 km/h
11.11.2013 21:00 6,3 C 75 % 1030,4 hPa 0,0 l/m 7,5 km/h N 2,2 C 5,2 C 22,1 km/h
11.11.2013 22:00 6,2 C 76 % 1030,3 hPa 0,0 l/m 8,3 km/h N 2,3 C 4,7 C 22,5 km/h
11.11.2013 23:00 5,9 C 77 % 1030,4 hPa 0,0 l/m 7,6 km/h N 2,1 C 4,8 C 21,3 km/h
12.11.2013 00:00 5,2 C 79 % 1030,5 hPa 0,0 l/m 6,6 km/h N 1,8 C 4,9 C 19,3 km/h
12.11.2013 01:00 4,6 C 80 % 1030,6 hPa 0,0 l/m 4,9 km/h N 1,4 C 4,6 C 15,3 km/h
12.11.2013 02:00 4,2 C 80 % 1030,6 hPa 0,0 l/m 5,1 km/h N 1,1 C 4,2 C 16,1 km/h
12.11.2013 03:00 3,8 C 81 % 1030,4 hPa 0,0 l/m 3,9 km/h N 0,7 C 3,8 C 15,3 km/h
12.11.2013 04:00 3,6 C 81 % 1030,2 hPa 0,0 l/m 3,1 km/h N 0,7 C 3,6 C 10,9 km/h
12.11.2013 05:00 3,7 C 80 % 1029,5 hPa 0,0 l/m 4,1 km/h N 0,6 C 3,7 C 12,9 km/h
12.11.2013 06:00 3,7 C 79 % 1029,3 hPa 0,0 l/m 4,0 km/h N 0,4 C 3,7 C 12,1 km/h
12.11.2013 07:00 3,4 C 79 % 1029,4 hPa 0,0 l/m 1,4 km/h N 0,2 C 3,4 C 6,8 km/h
12.11.2013 08:00 3,7 C 80 % 1029,3 hPa 0,0 l/m 1,8 km/h N 0,5 C 3,7 C 6,8 km/h
12.11.2013 09:00 4,4 C 78 % 1029,3 hPa 0,0 l/m 2,9 km/h N 0,9 C 4,4 C 8,4 km/h
12.11.2013 10:00 5,5 C 76 % 1029,1 hPa 0,0 l/m 2,3 km/h N 1,5 C 5,5 C 8,8 km/h
12.11.2013 11:00 6,3 C 73 % 1028,3 hPa 0,0 l/m 2,2 km/h N 1,8 C 6,3 C 8,0 km/h
12.11.2013 12:00 7,0 C 71 % 1027,7 hPa 0,0 l/m 0,9 km/h N 2,1 C 7,0 C 5,6 km/h
12.11.2013 13:00 7,7 C 71 % 1026,8 hPa 0,0 l/m 1,0 km/h N 2,7 C 7,7 C 5,6 km/h
12.11.2013 14:00 7,8 C 71 % 1026,1 hPa 0,0 l/m 0,7 km/h N 2,8 C 7,8 C 4,8 km/h
12.11.2013 15:00 7,8 C 71 % 1025,6 hPa 0,0 l/m 1,3 km/h N 2,9 C 7,8 C 6,0 km/h
12.11.2013 16:00 7,0 C 73 % 1025,4 hPa 0,0 l/m 0,3 km/h N 2,4 C 7,0 C 2,0 km/h
12.11.2013 17:00 5,3 C 76 % 1025,5 hPa 0,0 l/m 0,0 km/h N 1,4 C 5,3 C 0,0 km/h
12.11.2013 18:00 3,5 C 80 % 1025,4 hPa 0,0 l/m 0,0 km/h N 0,4 C 3,5 C 0,0 km/h
12.11.2013 19:00 2,5 C 83 % 1025,2 hPa 0,0 l/m 0,0 km/h N -0,1 C 2,5 C 0,0 km/h
12.11.2013 20:00 1,9 C 85 % 1025,0 hPa 0,0 l/m 0,0 km/h N -0,4 C 1,9 C 0,0 km/h
12.11.2013 21:00 1,4 C 85 % 1024,7 hPa 0,0 l/m 0,0 km/h N -0,8 C 1,4 C 0,0 km/h
12.11.2013 22:00 1,9 C 85 % 1024,4 hPa 0,0 l/m 0,1 km/h N -0,3 C 1,9 C 1,2 km/h
12.11.2013 23:00 1,8 C 84 % 1024,4 hPa 0,0 l/m 0,0 km/h N -0,6 C 1,8 C 0,0 km/h
13.11.2013 00:00 2,3 C 83 % 1024,4 hPa 0,0 l/m 0,4 km/h N -0,2 C 2,3 C 4,0 km/h
13.11.2013 01:00 4,3 C 81 % 1024,7 hPa 0,0 l/m 1,3 km/h N 1,4 C 4,3 C 6,0 km/h
13.11.2013 02:00 5,2 C 84 % 1024,9 hPa 0,0 l/m 1,0 km/h N 2,7 C 5,2 C 6,0 km/h
13.11.2013 03:00 5,9 C 84 % 1025,1 hPa 0,0 l/m 2,3 km/h N 3,5 C 5,9 C 9,3 km/h
13.11.2013 04:00 6,4 C 82 % 1025,3 hPa 0,0 l/m 4,6 km/h N 3,6 C 6,4 C 14,5 km/h
13.11.2013 05:00 6,6 C 81 % 1025,5 hPa 0,0 l/m 6,2 km/h N 3,5 C 6,4 C 20,9 km/h
13.11.2013 06:00 6,4 C 79 % 1025,7 hPa 0,0 l/m 8,3 km/h N 2,9 C 4,9 C 24,9 km/h
13.11.2013 07:00 6,5 C 77 % 1026,4 hPa 0,0 l/m 12,5 km/h N 2,7 C 2,4 C 29,0 km/h
13.11.2013 08:00 6,4 C 76 % 1027,3 hPa 0,0 l/m 11,8 km/h N 2,4 C 2,5 C 26,5 km/h
13.11.2013 09:00 6,4 C 76 % 1027,9 hPa 0,0 l/m 7,3 km/h N 2,4 C 5,6 C 21,7 km/h
13.11.2013 10:00 6,6 C 75 % 1028,4 hPa 0,0 l/m 9,0 km/h N 2,4 C 4,6 C 21,7 km/h
13.11.2013 11:00 7,0 C 73 % 1028,0 hPa 0,0 l/m 10,5 km/h N 2,5 C 4,1 C 25,3 km/h
13.11.2013 12:00 6,9 C 71 % 1027,7 hPa 0,0 l/m 14,7 km/h N 2,1 C 1,6 C 29,8 km/h
13.11.2013 13:00 7,1 C 72 % 1027,4 hPa 0,0 l/m 13,0 km/h N 2,3 C 2,6 C 29,4 km/h
13.11.2013 14:00 7,7 C 70 % 1027,5 hPa 0,0 l/m 11,5 km/h N 2,6 C 4,1 C 26,9 km/h
13.11.2013 15:00 7,2 C 71 % 1027,8 hPa 0,0 l/m 10,1 km/h N 2,3 C 4,5 C 24,9 km/h
13.11.2013 16:00 6,8 C 72 % 1027,8 hPa 0,0 l/m 7,2 km/h N 2,1 C 5,9 C 18,9 km/h
13.11.2013 17:00 6,5 C 74 % 1028,0 hPa 0,0 l/m 9,3 km/h N 2,2 C 4,2 C 24,1 km/h
13.11.2013 18:00 6,7 C 74 % 1028,3 hPa 0,0 l/m 11,8 km/h N 2,4 C 2,8 C 29,8 km/h
13.11.2013 19:00 6,3 C 77 % 1028,7 hPa 0,0 l/m 11,3 km/h N 2,6 C 2,7 C 27,4 km/h
13.11.2013 20:00 5,9 C 82 % 1028,9 hPa 0,0 l/m 11,2 km/h N 3,1 C 2,3 C 26,1 km/h
13.11.2013 21:00 5,6 C 84 % 1029,0 hPa 0,0 l/m 8,9 km/h N 3,0 C 3,6 C 21,7 km/h
13.11.2013 22:00 5,3 C 83 % 1028,9 hPa 0,0 l/m 6,4 km/h N 2,7 C 5,0 C 18,1 km/h
13.11.2013 23:00 4,9 C 83 % 1028,8 hPa 0,0 l/m 4,6 km/h N 2,4 C 4,9 C 15,3 km/h
14.11.2013 00:00 4,9 C 83 % 1028,6 hPa 0,0 l/m 5,2 km/h N 2,3 C 4,9 C 15,7 km/h
14.11.2013 01:00 4,9 C 83 % 1028,1 hPa 0,0 l/m 0,9 km/h N 2,2 C 4,9 C 6,0 km/h
14.11.2013 02:00 4,1 C 83 % 1027,4 hPa 0,0 l/m 1,0 km/h N 1,5 C 4,1 C 4,4 km/h
14.11.2013 03:00 3,0 C 83 % 1026,8 hPa 0,0 l/m 0,1 km/h N 0,3 C 3,0 C 2,0 km/h
14.11.2013 04:00 1,5 C 83 % 1026,2 hPa 0,0 l/m 0,0 km/h N -1,2 C 1,5 C 1,2 km/h
14.11.2013 05:00 0,2 C 84 % 1025,4 hPa 0,0 l/m 0,0 km/h N -2,2 C 0,2 C 0,0 km/h
14.11.2013 06:00 -0,3 C 86 % 1024,9 hPa 0,0 l/m 0,0 km/h N -2,4 C -0,3 C 1,2 km/h
14.11.2013 07:00 -0,5 C 85 % 1024,5 hPa 0,0 l/m 0,0 km/h N -2,7 C -0,5 C 0,4 km/h
14.11.2013 08:00 1,3 C 84 % 1024,0 hPa 0,0 l/m 0,3 km/h N -1,2 C 1,3 C 3,6 km/h
14.11.2013 09:00 3,6 C 84 % 1023,3 hPa 0,0 l/m 0,3 km/h N 1,2 C 3,6 C 2,0 km/h
14.11.2013 10:00 5,1 C 81 % 1022,5 hPa 0,0 l/m 1,0 km/h N 2,1 C 5,1 C 5,6 km/h
14.11.2013 11:00 6,2 C 75 % 1021,5 hPa 0,0 l/m 1,9 km/h N 2,0 C 6,2 C 7,6 km/h
14.11.2013 12:00 6,8 C 73 % 1020,4 hPa 0,0 l/m 1,9 km/h N 2,3 C 6,8 C 9,7 km/h
14.11.2013 13:00 6,6 C 74 % 1019,7 hPa 0,0 l/m 0,9 km/h N 2,3 C 6,6 C 7,6 km/h
14.11.2013 14:00 7,0 C 73 % 1019,4 hPa 0,0 l/m 1,9 km/h N 2,4 C 7,0 C 10,1 km/h
14.11.2013 15:00 6,6 C 74 % 1019,4 hPa 0,0 l/m 2,7 km/h N 2,3 C 6,6 C 9,3 km/h
14.11.2013 16:00 6,2 C 78 % 1019,8 hPa 0,3 l/m 0,1 km/h N 2,7 C 6,2 C 0,8 km/h
14.11.2013 17:00 5,7 C 82 % 1020,3 hPa 0,0 l/m 0,1 km/h N 2,8 C 5,7 C 2,0 km/h
14.11.2013 18:00 5,4 C 84 % 1020,7 hPa 0,0 l/m 0,1 km/h N 3,0 C 5,4 C 1,6 km/h
14.11.2013 19:00 5,2 C 85 % 1021,1 hPa 0,0 l/m 0,1 km/h N 2,8 C 5,2 C 1,6 km/h
14.11.2013 20:00 4,8 C 84 % 1021,2 hPa 0,3 l/m 0,1 km/h N 2,4 C 4,8 C 2,4 km/h
14.11.2013 21:00 4,7 C 85 % 1021,3 hPa 0,3 l/m 0,1 km/h N 2,4 C 4,7 C 2,0 km/h
14.11.2013 22:00 4,6 C 85 % 1021,3 hPa 0,0 l/m 0,2 km/h N 2,3 C 4,6 C 1,2 km/h
14.11.2013 23:00 4,6 C 85 % 1021,3 hPa 0,0 l/m 0,0 km/h N 2,3 C 4,6 C 0,0 km/h
15.11.2013 00:00 4,5 C 85 % 1021,2 hPa 0,0 l/m 0,0 km/h N 2,2 C 4,5 C 0,0 km/h
15.11.2013 01:00 4,4 C 85 % 1021,3 hPa 0,0 l/m 0,0 km/h N 2,1 C 4,4 C 0,4 km/h
15.11.2013 02:00 4,6 C 85 % 1021,7 hPa 0,0 l/m 0,0 km/h N 2,2 C 4,6 C 0,0 km/h
15.11.2013 03:00 4,5 C 84 % 1021,8 hPa 0,3 l/m 0,0 km/h N 2,0 C 4,5 C 0,0 km/h
15.11.2013 04:00 4,5 C 84 % 1022,2 hPa 0,0 l/m 0,0 km/h N 2,0 C 4,5 C 0,0 km/h
15.11.2013 05:00 4,4 C 83 % 1022,6 hPa 0,0 l/m 0,0 km/h N 1,8 C 4,4 C 0,0 km/h
15.11.2013 06:00 4,5 C 83 % 1023,0 hPa 0,0 l/m 0,0 km/h N 1,9 C 4,5 C 0,0 km/h
15.11.2013 07:00 4,6 C 83 % 1023,8 hPa 0,0 l/m 0,0 km/h N 1,9 C 4,6 C 0,4 km/h
15.11.2013 08:00 4,8 C 82 % 1024,4 hPa 0,0 l/m 0,0 km/h N 1,9 C 4,8 C 0,4 km/h
15.11.2013 09:00 5,2 C 82 % 1025,2 hPa 0,0 l/m 0,1 km/h N 2,3 C 5,2 C 1,2 km/h
15.11.2013 10:00 5,6 C 82 % 1025,7 hPa 0,0 l/m 0,1 km/h N 2,8 C 5,6 C 2,0 km/h
15.11.2013 11:00 5,7 C 83 % 1025,6 hPa 0,0 l/m 0,2 km/h N 3,1 C 5,7 C 2,8 km/h
15.11.2013 12:00 6,0 C 85 % 1025,6 hPa 0,0 l/m 0,1 km/h N 3,6 C 6,0 C 2,0 km/h
15.11.2013 13:00 6,3 C 85 % 1025,7 hPa 0,0 l/m 0,0 km/h N 4,0 C 6,3 C 0,8 km/h
15.11.2013 14:00 6,6 C 85 % 1025,8 hPa 0,0 l/m 0,0 km/h N 4,2 C 6,6 C 0,0 km/h
15.11.2013 15:00 6,7 C 84 % 1026,2 hPa 0,0 l/m 0,4 km/h N 4,1 C 6,7 C 2,8 km/h
15.11.2013 16:00 6,5 C 84 % 1026,7 hPa 0,0 l/m 1,1 km/h N 4,0 C 6,5 C 4,8 km/h
15.11.2013 17:00 6,3 C 84 % 1027,2 hPa 0,0 l/m 0,7 km/h N 3,8 C 6,3 C 4,8 km/h
15.11.2013 18:00 6,0 C 85 % 1027,5 hPa 0,0 l/m 0,0 km/h N 3,6 C 6,0 C 0,8 km/h
15.11.2013 19:00 5,9 C 85 % 1028,0 hPa 0,0 l/m 0,0 km/h N 3,6 C 5,9 C 0,0 km/h
15.11.2013 20:00 5,9 C 85 % 1028,6 hPa 0,0 l/m 0,0 km/h N 3,6 C 5,9 C 0,0 km/h
15.11.2013 21:00 5,9 C 85 % 1029,1 hPa 0,0 l/m 0,0 km/h N 3,6 C 5,9 C 0,0 km/h
15.11.2013 22:00 5,8 C 85 % 1028,8 hPa 0,0 l/m 0,0 km/h N 3,5 C 5,8 C 0,0 km/h
15.11.2013 23:00 5,5 C 85 % 1028,2 hPa 0,0 l/m 0,0 km/h N 3,2 C 5,5 C 0,0 km/h
16.11.2013 00:00 4,3 C 85 % 1028,0 hPa 0,0 l/m 0,0 km/h N 2,1 C 4,3 C 0,0 km/h
16.11.2013 01:00 2,7 C 85 % 1028,3 hPa 0,0 l/m 0,0 km/h N 0,5 C 2,7 C 0,0 km/h
16.11.2013 02:00 1,9 C 86 % 1028,2 hPa 0,0 l/m 0,0 km/h N -0,3 C 1,9 C 0,0 km/h
16.11.2013 03:00 1,1 C 86 % 1028,1 hPa 0,0 l/m 0,0 km/h N -1,1 C 1,1 C 0,0 km/h
16.11.2013 04:00 0,4 C 85 % 1028,6 hPa 0,0 l/m 0,0 km/h N -1,8 C 0,4 C 0,0 km/h
16.11.2013 05:00 0,1 C 85 % 1028,8 hPa 0,0 l/m 0,0 km/h N -2,2 C 0,1 C 0,0 km/h
16.11.2013 06:00 2,0 C 82 % 1029,2 hPa 0,0 l/m 0,2 km/h N -0,9 C 2,0 C 2,0 km/h
16.11.2013 07:00 4,1 C 80 % 1029,8 hPa 0,0 l/m 0,2 km/h N 1,0 C 4,1 C 2,4 km/h
16.11.2013 08:00 4,7 C 80 % 1030,1 hPa 0,3 l/m 0,1 km/h N 1,5 C 4,7 C 1,2 km/h
16.11.2013 09:00 5,4 C 79 % 1030,6 hPa 0,0 l/m 0,4 km/h N 2,1 C 5,4 C 2,8 km/h
16.11.2013 10:00 6,1 C 78 % 1030,7 hPa 0,0 l/m 0,5 km/h N 2,6 C 6,1 C 2,4 km/h
16.11.2013 11:00 7,0 C 78 % 1030,3 hPa 0,0 l/m 0,2 km/h N 3,4 C 7,0 C 3,2 km/h
16.11.2013 12:00 7,6 C 79 % 1029,8 hPa 0,0 l/m 0,6 km/h N 4,2 C 7,6 C 4,4 km/h
16.11.2013 13:00 8,3 C 84 % 1029,3 hPa 0,0 l/m 0,7 km/h N 5,7 C 8,3 C 4,0 km/h
16.11.2013 14:00 9,3 C 82 % 1028,8 hPa 0,0 l/m 0,2 km/h N 6,3 C 9,3 C 2,4 km/h
16.11.2013 15:00 8,9 C 80 % 1028,7 hPa 0,0 l/m 0,1 km/h N 5,6 C 8,9 C 0,8 km/h
16.11.2013 16:00 7,0 C 80 % 1028,7 hPa 0,0 l/m 0,0 km/h N 3,8 C 7,0 C 0,0 km/h
16.11.2013 17:00 5,2 C 83 % 1028,7 hPa 0,0 l/m 0,0 km/h N 2,5 C 5,2 C 0,0 km/h
16.11.2013 18:00 4,4 C 85 % 1028,4 hPa 0,0 l/m 0,0 km/h N 2,0 C 4,4 C 0,0 km/h
16.11.2013 19:00 3,3 C 85 % 1028,3 hPa 0,0 l/m 0,0 km/h N 1,0 C 3,3 C 0,0 km/h
16.11.2013 20:00 2,3 C 86 % 1028,4 hPa 0,0 l/m 0,0 km/h N 0,2 C 2,3 C 0,0 km/h
16.11.2013 21:00 1,6 C 86 % 1028,5 hPa 0,0 l/m 0,0 km/h N -0,5 C 1,6 C 0,0 km/h
16.11.2013 22:00 0,9 C 86 % 1027,9 hPa 0,0 l/m 0,0 km/h N -1,2 C 0,9 C 0,0 km/h
16.11.2013 23:00 0,4 C 85 % 1027,6 hPa 0,0 l/m 0,0 km/h N -1,8 C 0,4 C 0,0 km/h
17.11.2013 00:00 -0,1 C 85 % 1027,2 hPa 0,0 l/m 0,0 km/h N -2,3 C -0,1 C 0,0 km/h
17.11.2013 01:00 0,4 C 84 % 1027,0 hPa 0,0 l/m 0,0 km/h N -2,0 C 0,4 C 0,0 km/h
17.11.2013 02:00 1,9 C 82 % 1026,5 hPa 0,0 l/m 0,0 km/h N -0,8 C 1,9 C 0,0 km/h
17.11.2013 03:00 3,3 C 81 % 1026,1 hPa 0,0 l/m 0,0 km/h N 0,4 C 3,3 C 0,0 km/h
17.11.2013 04:00 3,7 C 81 % 1025,9 hPa 0,0 l/m 0,0 km/h N 0,7 C 3,7 C 0,0 km/h
17.11.2013 05:00 3,7 C 80 % 1025,8 hPa 0,0 l/m 0,0 km/h N 0,6 C 3,7 C 2,0 km/h
17.11.2013 06:00 3,9 C 80 % 1025,7 hPa 0,0 l/m 0,9 km/h N 0,8 C 3,9 C 4,8 km/h
17.11.2013 07:00 3,8 C 80 % 1025,9 hPa 0,0 l/m 0,4 km/h N 0,7 C 3,8 C 4,0 km/h
17.11.2013 08:00 3,7 C 80 % 1025,8 hPa 0,0 l/m 1,3 km/h N 0,4 C 3,7 C 6,0 km/h
17.11.2013 09:00 3,6 C 79 % 1025,9 hPa 0,0 l/m 1,2 km/h N 0,3 C 3,6 C 6,8 km/h
17.11.2013 10:00 3,8 C 79 % 1025,7 hPa 0,0 l/m 0,3 km/h N 0,5 C 3,8 C 4,0 km/h
17.11.2013 11:00 4,3 C 78 % 1024,7 hPa 0,0 l/m 0,1 km/h N 0,9 C 4,3 C 1,6 km/h
17.11.2013 12:00 4,9 C 78 % 1024,0 hPa 0,0 l/m 0,3 km/h N 1,4 C 4,9 C 2,8 km/h
17.11.2013 13:00 6,3 C 77 % 1023,1 hPa 0,0 l/m 0,7 km/h N 2,5 C 6,3 C 4,4 km/h
17.11.2013 14:00 6,4 C 78 % 1022,8 hPa 0,0 l/m 0,5 km/h N 2,9 C 6,4 C 4,8 km/h
17.11.2013 15:00 5,7 C 79 % 1022,8 hPa 0,0 l/m 0,4 km/h N 2,4 C 5,7 C 5,2 km/h
17.11.2013 16:00 5,7 C 79 % 1022,7 hPa 0,0 l/m 0,6 km/h N 2,3 C 5,7 C 5,6 km/h
17.11.2013 17:00 5,6 C 79 % 1022,5 hPa 0,0 l/m 0,1 km/h N 2,3 C 5,6 C 2,4 km/h
17.11.2013 18:00 5,8 C 79 % 1022,4 hPa 0,0 l/m 0,1 km/h N 2,5 C 5,8 C 1,6 km/h
17.11.2013 19:00 6,2 C 78 % 1022,4 hPa 0,0 l/m 1,5 km/h N 2,7 C 6,2 C 8,0 km/h
17.11.2013 20:00 6,5 C 78 % 1022,1 hPa 0,0 l/m 2,4 km/h N 2,9 C 6,5 C 8,9 km/h
17.11.2013 21:00 6,2 C 79 % 1022,0 hPa 0,0 l/m 4,6 km/h N 2,7 C 6,2 C 16,5 km/h
17.11.2013 22:00 5,9 C 79 % 1021,8 hPa 0,0 l/m 4,3 km/h N 2,6 C 5,9 C 14,1 km/h
17.11.2013 23:00 5,7 C 79 % 1021,5 hPa 0,0 l/m 4,6 km/h N 2,3 C 5,7 C 13,3 km/h
Min-Datum _ 14.11.13 11.11.13 11.11.13 - 12.11.13 - 14.11.13 11.11.13 12.11.13
_ Min-Zeit 07:15 16:15 00:00 - 16:30 - 07:30 05:00 16:30
Minimum _ -0,6 C 69 % 1011,0 hPa - 0,0 km/h - -2,8 C -3,5 C 0,0 km/h
Max-Datum _ 16.11.13 11.11.13 16.11.13 11.11.13 11.11.13 - 16.11.13 16.11.13 11.11.13
_ Max-Zeit 14:30 01:45 10:15 02:00 02:30 - 14:15 14:30 02:30
Maximum _ 9,5 C 89 % 1030,8 hPa 2,1 l/m 18,8 km/h
N
- 6,5 C 9,5 C 40,2 km/h
N
Durchschnitt _ 5,0 C 80 % 1025,7 hPa #11,4 l/m 3,4 km/h N 1,8 C 4,1 C 9,5 km/h